01:01
Airports
History
Links
Donate
Help keep this website running!
PayPal
Bitcoin
This page is community maintained. The information is intended for PC simulator navigation or reference.
Always use approved charts for navigation.
SNXS
Caxias
Caxias (SNXS)
Caxias, Maranhao, Brazil (65604)
(C)
Lat/Lng:4° 52' 0" S / 43° 21' 1" W
-4.866667 / -43.350277
Elevation:344'ft / 105mMSL
ID / ICAO:SNXS
Runways:1
Longest:12-30
Concrete 1,159m / 3,802ft
Controlled:Yes
Nearby Weather01:00 GMT 2017-11-18
Nearby weather at SBTE, Senador Petronio Portella located 38.6 nautical miles from SNXS
Altimeter: 29.77
Visibility: 6.2 statute miles
Wind: 2 knots (from 020°)
Temp: 30°c / 86°f
Humidity: 55.1%

METAR: SBTE 180100Z 02002KT CAVOK 30/20 Q1008

(Powered by phpweather)
Runway 12 / 30
Dimensions:1158.7 x 16.5m 3802' x 54'ft
Surface:Concrete
Edge Lights:Medium intensity
Runway 12 [A]Runway 30 [B]
Heading:099°TH 279°TH
Lat:
Lng:
4° 51' 56.74"S
43° 21' 19.57"W
4° 52' 3.26"S
43° 20' 42.42"W
ALS:MALSMALS
User Notes and Comments
4° 52' 0" S / 43° 21' 1" W
Distance To
Airport ID:
Nearby Airports
4 Fazenda Rio Largo 28.5 NM
SNIS SW 216°
(U) DOMINGOS REGO 36.0 NM
SNDR ESE 114°
(C) Senador Petronio Portella 38.6 NM
SBTE ( WX ) ESE 110°
4 Nossa Senhora de Fatima 45.9 NM
SNNF ESE 104°
(U) Dr. Almir Lopes de Oliveira Melo 47.8 NM
SIDB NNE 30°
(U) Tambori 47.9 NM
SNTC ESE 115°
4 Tambori 49.0 NM
SNWQ ESE 114°
VFR Chart
Flight Planning at SkyVector.com